Latest Weather Observations for Noarlunga

IDS60901

Issued at 5:41 pm CST Friday 29 April 2016 (issued every 10 minutes, with the page automatically refreshed every 10 minutes)

About weather observations | Map of Adelaide area stations | Latest observations for Adelaide area | Other Formats
Station Details ID: 023885 Name: NOARLUNGA Lat: -35.16 Lon: 138.51 Height: 55.0 m
Data from the previous 72 hours. | See also: Recent months at Noarlunga
Date/Time
CST
Tmp

°C
App
Tmp
°C
Dew
Point
°C
Rel
Hum
%
Delta-T

°C
Wind Press
QNH
hPa
Press
MSL
hPa
Rain
since
9 am
mm
Dir
 
Spd
km/h
Gust
km/h
Spd
kts
Gust
kts
29/05:30pm 20.0 19.8 13.5 66 3.7 NNW 7 11 4 6 - - 0.0
29/05:00pm 20.7 20.1 13.4 63 4.2 NNW 9 13 5 7 - - 0.0
29/04:30pm 21.4 20.5 13.8 62 4.4 NNW 11 15 6 8 - - 0.0
29/04:00pm 22.1 21.2 13.7 59 4.9 NW 11 19 6 10 - - 0.0
29/03:30pm 21.6 19.9 13.5 60 4.7 NNW 15 20 8 11 - - 0.0
29/03:00pm 21.8 19.7 13.7 60 4.7 NNW 17 24 9 13 - - 0.0
29/02:30pm 21.2 19.0 13.4 61 4.5 NNW 17 24 9 13 - - 0.0
29/02:00pm 21.3 19.2 13.7 62 4.4 NNW 17 24 9 13 - - 0.0
29/01:30pm 21.2 19.1 13.6 62 4.4 NNW 17 24 9 13 - - 0.0
29/01:00pm 20.8 17.9 13.0 61 4.4 NNW 20 30 11 16 - - 0.0
29/12:30pm 21.0 18.7 12.9 60 4.6 NNW 17 26 9 14 - - 0.0
29/12:00pm 20.8 18.7 13.5 63 4.2 N 17 24 9 13 - - 0.0
29/11:30am 19.4 17.8 13.8 70 3.2 NNW 15 20 8 11 - - 0.0
29/11:00am 19.3 17.4 14.1 72 3.0 N 17 20 9 11 - - 0.0
29/10:30am 18.8 18.5 14.5 76 2.5 NNW 9 15 5 8 - - 0.0
29/10:00am 18.2 17.5 14.3 78 2.2 N 11 17 6 9 - - 0.0
29/09:30am 17.7 16.6 14.2 80 2.0 NNW 13 17 7 9 - - 0.0
29/09:00am 17.4 17.0 14.1 81 1.9 N 9 19 5 10 - - 3.4
29/08:30am 17.3 17.1 14.6 84 1.6 N 9 15 5 8 - - 3.4
29/08:00am 17.1 17.5 14.7 86 1.4 N 6 7 3 4 - - 3.2
29/07:30am 17.0 17.2 14.6 86 1.4 N 7 13 4 7 - - 3.2
29/07:00am 16.9 16.6 14.5 86 1.4 NNW 9 13 5 7 - - 3.2
29/06:30am 17.1 16.5 14.7 86 1.4 NNW 11 15 6 8 - - 3.2
29/06:00am 16.9 17.3 14.7 87 1.3 N 6 7 3 4 - - 3.2
29/05:30am 16.9 17.6 14.4 85 1.4 N 4 7 2 4 - - 3.2
29/05:00am 17.3 17.0 14.4 83 1.7 NW 9 13 5 7 - - 2.8
29/04:30am 18.0 17.7 14.5 80 2.0 NW 9 15 5 8 - - 1.8
29/04:00am 18.5 18.8 16.1 86 1.4 NW 9 13 5 7 - - 1.6
29/03:30am 18.8 18.7 15.9 83 1.7 NNW 11 17 6 9 - - 1.4
29/03:00am 19.9 17.8 14.7 72 3.0 NW 19 30 10 16 - - 1.0
29/02:30am 21.3 17.6 11.6 54 5.4 NNW 22 33 12 18 - - 1.0
29/02:00am 21.8 17.2 8.3 42 7.1 N 22 37 12 20 - - 1.0
29/01:30am 23.3 16.9 5.2 31 9.1 N 28 39 15 21 - - 1.0
29/01:00am 21.7 17.8 8.6 43 6.9 NNE 19 30 10 16 - - 1.0
29/12:30am 20.8 18.9 10.6 52 5.6 NE 11 19 6 10 - - 1.0
29/12:00am 21.8 15.0 9.3 45 6.7 NNW 35 59 19 32 - - 1.0
 
Date/Time
CST
Tmp

°C
App
Tmp
°C
Dew
Point
°C
Rel
Hum
%
Delta-T

°C
Wind Press
QNH
hPa
Press
MSL
hPa
Rain
since
9 am
mm
Dir
 
Spd
km/h
Gust
km/h
Spd
kts
Gust
kts
28/11:49pm 23.3 16.8 8.2 38 8.0 NNW 32 72 17 39 - - 1.0
28/11:38pm 24.4 18.0 5.2 29 9.7 N 28 50 15 27 - - 1.0
28/11:30pm 24.2 18.6 5.5 30 9.5 NNE 24 35 13 19 - - 1.0
28/11:00pm 23.8 19.7 6.1 32 9.1 NE 17 26 9 14 - - 1.0
28/10:30pm 23.1 20.0 7.2 36 8.3 NE 13 20 7 11 - - 1.0
28/10:00pm 23.3 19.6 7.8 37 8.2 NE 17 24 9 13 - - 1.0
28/09:30pm 23.1 19.1 8.4 39 7.8 NE 19 26 10 14 - - 1.0
28/09:00pm 21.9 19.3 10.7 49 6.2 NE 15 24 8 13 - - 1.0
28/08:30pm 22.3 19.5 11.4 50 6.1 NNE 17 26 9 14 - - 0.6
28/08:00pm 21.8 20.4 12.1 54 5.5 NE 11 17 6 9 - - 0.6
28/07:30pm 22.5 20.0 12.4 52 5.7 NE 17 28 9 15 - - 0.6
28/07:00pm 21.4 20.2 14.1 63 4.3 ENE 13 20 7 11 - - 0.6
28/06:30pm 19.6 18.6 14.6 73 2.9 E 13 17 7 9 - - 0.6
28/06:00pm 19.8 21.0 15.0 74 2.8 N 2 6 1 3 - - 0.4
28/05:30pm 20.2 20.1 13.9 67 3.6 ENE 7 11 4 6 - - 0.0
28/05:00pm 20.0 20.9 14.1 69 3.4 NW 2 6 1 3 - - 0.0
28/04:30pm 20.0 20.5 13.9 68 3.5 S 4 6 2 3 - - 0.0
28/04:00pm 19.9 19.6 13.4 66 3.7 SW 7 13 4 7 - - 0.0
28/03:30pm 20.2 19.4 12.9 63 4.1 SW 9 13 5 7 - - 0.0
28/03:00pm 21.0 20.6 12.9 60 4.6 W 7 9 4 5 - - 0.0
28/02:30pm 22.9 22.4 12.8 53 5.8 W 7 13 4 7 - - 0.0
28/02:00pm 23.3 23.1 12.9 52 6.0 WSW 6 9 3 5 - - 0.0
28/01:30pm 23.6 23.6 12.3 49 6.5 W 4 9 2 5 - - 0.0
28/01:00pm 22.6 22.1 12.5 53 5.8 WSW 7 11 4 6 - - 0.0
28/12:30pm 21.4 20.8 12.3 56 5.1 WSW 7 13 4 7 - - 0.0
28/12:00pm 22.1 21.2 11.5 51 5.9 NNE 7 9 4 5 - - 0.0
28/11:30am 21.2 21.2 12.3 57 5.0 N 4 11 2 6 - - 0.0
28/11:00am 19.7 19.0 12.0 61 4.3 NNE 7 13 4 7 - - 0.0
28/10:30am 19.6 19.4 11.9 61 4.3 NNE 4 7 2 4 - - 0.0
28/10:00am 19.4 18.9 12.2 63 4.0 NE 6 7 3 4 - - 0.0
28/09:30am 17.9 17.7 13.0 73 2.8 ESE 6 7 3 4 - - 0.0
28/09:00am 16.6 17.3 13.3 81 1.9 SE 2 4 1 2 - - 0.0
28/08:30am 16.8 16.9 12.7 77 2.3 SE 4 7 2 4 - - 0.0
28/08:00am 16.1 16.9 12.5 79 2.0 CALM 0 0 0 0 - - 0.0
28/07:30am 16.3 15.8 12.7 79 2.0 ENE 7 11 4 6 - - 0.0
28/07:00am 15.4 14.8 12.3 82 1.7 E 7 9 4 5 - - 0.0
28/06:30am 15.2 14.6 12.2 82 1.6 ESE 7 11 4 6 - - 0.0
28/06:00am 15.7 15.3 12.3 80 1.9 ESE 6 7 3 4 - - 0.0
28/05:30am 15.9 15.5 12.5 80 1.9 ESE 6 9 3 5 - - 0.0
28/05:00am 16.0 16.1 12.7 81 1.8 SSE 4 6 2 3 - - 0.0
28/04:30am 16.2 16.3 12.7 80 1.9 S 4 4 2 2 - - 0.0
28/04:00am 16.5 16.6 12.8 79 2.1 SE 4 6 2 3 - - 0.0
28/03:30am 17.1 18.2 13.4 79 2.1 CALM 0 4 0 2 - - 0.0
28/03:00am 17.5 17.5 13.6 78 2.2 SW 6 9 3 5 - - 0.0
28/02:30am 17.7 17.8 12.6 72 2.8 SW 4 6 2 3 - - 0.0
28/02:00am 18.0 17.5 12.7 71 3.0 WSW 7 9 4 5 - - 0.0
28/01:30am 18.1 18.1 12.3 69 3.2 SW 4 6 2 3 - - 0.0
28/01:00am 18.4 17.6 12.8 70 3.1 SSW 9 15 5 8 - - 0.0
28/12:30am 18.3 18.7 13.8 75 2.6 WSW 4 7 2 4 - - 0.0
28/12:00am 18.2 19.3 14.5 79 2.1 WSW 2 7 1 4 - - 0.0
 
Date/Time
CST
Tmp

°C
App
Tmp
°C
Dew
Point
°C
Rel
Hum
%
Delta-T

°C
Wind Press
QNH
hPa
Press
MSL
hPa
Rain
since
9 am
mm
Dir
 
Spd
km/h
Gust
km/h
Spd
kts
Gust
kts
27/11:30pm 18.8 19.3 14.9 78 2.3 NW 6 9 3 5 - - 0.0
27/11:00pm 18.2 19.3 13.5 74 2.7 CALM 0 4 0 2 - - 0.0
27/10:30pm 18.6 18.6 13.7 73 2.8 WNW 6 11 3 6 - - 0.0
27/10:00pm 19.5 19.9 13.7 69 3.3 NE 4 6 2 3 - - 0.0
27/09:30pm 20.1 21.1 14.2 69 3.4 N 2 4 1 2 - - 0.0
27/09:00pm 20.1 21.1 14.2 69 3.4 NNW 2 2 1 1 - - 0.0
27/08:30pm 20.6 20.8 14.3 67 3.7 WSW 6 9 3 5 - - 0.0
27/08:00pm 22.0 20.7 12.5 54 5.4 WNW 11 17 6 9 - - 0.0
27/07:30pm 23.5 21.6 10.6 44 7.1 NW 11 20 6 11 - - 0.0
27/07:00pm 24.1 20.6 8.9 38 8.2 NNE 17 24 9 13 - - 0.0
27/06:30pm 24.2 21.2 9.4 39 8.1 N 15 24 8 13 - - 0.0
27/06:00pm 24.7 20.0 7.8 34 9.0 NNW 22 41 12 22 - - 0.0
27/05:30pm 25.1 20.7 7.3 32 9.4 N 20 30 11 16 - - 0.0
27/05:00pm 25.1 20.3 7.3 32 9.4 N 22 35 12 19 - - 0.0
27/04:30pm 25.0 20.2 7.2 32 9.4 N 22 35 12 19 - - 0.0
27/04:00pm 25.0 19.4 7.2 32 9.4 N 26 41 14 22 - - 0.0
27/03:30pm 24.6 19.6 8.1 35 8.8 N 24 33 13 18 - - 0.0
27/03:00pm 24.3 20.3 9.1 38 8.2 N 20 33 11 18 - - 0.0
27/02:30pm 24.5 19.1 8.0 35 8.8 N 26 41 14 22 - - 0.0
27/02:00pm 25.3 18.9 7.0 31 9.6 N 30 52 16 28 - - 0.0
27/01:30pm 25.4 18.5 6.6 30 9.8 NNW 32 57 17 31 - - 0.0
27/01:00pm 25.1 20.1 8.1 34 9.1 N 24 43 13 23 - - 0.0
27/12:30pm 25.0 19.6 8.1 34 9.0 N 26 39 14 21 - - 0.0
27/12:00pm 24.5 18.9 7.2 33 9.1 N 26 43 14 23 - - 0.0
27/11:30am 25.0 19.0 5.2 28 10.0 N 26 41 14 22 - - 0.0
27/11:00am 25.6 18.5 3.6 24 10.9 N 30 48 16 26 - - 0.0
27/10:30am 26.0 18.3 3.3 23 11.2 N 33 44 18 24 - - 0.0
27/10:10am 25.7 18.5 3.0 23 11.1 N 30 52 16 28 - - 0.0
27/10:00am 25.5 18.3 2.9 23 11.0 N 30 44 16 24 - - 0.0
27/09:30am 24.9 17.7 3.0 24 10.7 N 30 46 16 25 - - 0.0
27/09:05am 24.8 17.6 2.9 24 10.6 N 30 48 16 26 - - 0.0
27/09:00am 24.9 17.1 3.0 24 10.7 N 33 46 18 25 - - 0.0
27/08:38am 24.7 17.5 2.8 24 10.6 N 30 48 16 26 - - 0.0
27/08:30am 24.4 16.7 2.5 24 10.5 NNE 32 48 17 26 - - 0.0
27/08:26am 24.4 17.1 2.5 24 10.5 NNE 30 48 16 26 - - 0.0
27/08:00am 24.3 16.7 3.0 25 10.3 N 32 46 17 25 - - 0.0
27/07:30am 23.9 17.0 2.7 25 10.2 NNE 28 44 15 24 - - 0.0
27/07:00am 24.0 16.4 2.8 25 10.2 NNE 32 54 17 29 - - 0.0
27/06:30am 23.6 16.7 2.4 25 10.1 NNE 28 46 15 25 - - 0.0
27/06:29am 23.6 16.7 2.4 25 10.1 NNE 28 46 15 25 - - 0.0
27/06:00am 23.7 16.4 2.5 25 10.1 NNE 30 43 16 23 - - 0.0
27/05:32am 23.7 16.4 2.5 25 10.1 NNE 30 48 16 26 - - 0.0
27/05:30am 23.7 16.0 2.5 25 10.1 NNE 32 44 17 24 - - 0.0
27/05:00am 23.5 15.6 2.4 25 10.1 N 33 54 18 29 - - 0.0
27/04:40am 23.6 15.9 2.4 25 10.1 N 32 50 17 27 - - 0.0
27/04:30am 23.9 16.0 2.1 24 10.4 N 33 50 18 27 - - 0.0
27/04:00am 24.0 15.7 2.2 24 10.4 N 35 54 19 29 - - 0.0
27/03:42am 23.9 15.7 2.7 25 10.2 N 35 54 19 29 - - 0.0
27/03:30am 23.7 16.0 2.5 25 10.1 N 32 46 17 25 - - 0.0
27/03:00am 23.7 16.0 2.5 25 10.1 N 32 52 17 28 - - 0.0
27/02:36am 23.6 15.9 2.4 25 10.1 NNE 32 52 17 28 - - 0.0
27/02:30am 23.5 16.2 2.4 25 10.1 N 30 46 16 25 - - 0.0
27/02:04am 23.9 16.2 2.1 24 10.4 N 32 52 17 28 - - 0.0
27/02:00am 24.0 16.3 2.2 24 10.4 N 32 48 17 26 - - 0.0
27/01:35am 23.8 16.8 2.0 24 10.3 NNE 28 48 15 26 - - 0.0
27/01:30am 23.7 16.3 2.0 24 10.3 NNE 30 48 16 26 - - 0.0
27/01:21am 23.9 16.9 2.1 24 10.4 NNE 28 48 15 26 - - 0.0
27/01:00am 23.5 17.0 2.4 25 10.1 NNE 26 43 14 23 - - 0.0
27/12:30am 23.7 17.5 2.0 24 10.3 NNE 24 44 13 24 - - 0.0
27/12:00am 23.3 17.8 1.6 24 10.2 NNE 20 32 11 17 - - 0.0
 
Date/Time
CST
Tmp

°C
App
Tmp
°C
Dew
Point
°C
Rel
Hum
%
Delta-T

°C
Wind Press
QNH
hPa
Press
MSL
hPa
Rain
since
9 am
mm
Dir
 
Spd
km/h
Gust
km/h
Spd
kts
Gust
kts
26/11:30pm 23.5 18.0 1.8 24 10.2 NNE 20 33 11 18 - - 0.0
26/11:00pm 23.4 18.1 1.7 24 10.2 NNE 19 26 10 14 - - 0.0
26/10:30pm 23.8 17.9 1.4 23 10.5 NNE 22 32 12 17 - - 0.0
26/10:00pm 23.2 18.2 1.5 24 10.2 NNE 17 24 9 13 - - 0.0
26/09:30pm 23.1 17.7 1.5 24 10.1 NE 19 24 10 13 - - 0.0
26/09:00pm 23.1 18.5 1.5 24 10.1 NE 15 22 8 12 - - 0.0
26/08:30pm 23.1 19.1 2.6 26 9.8 NE 13 19 7 10 - - 0.0
26/08:00pm 23.0 19.3 2.5 26 9.8 NE 11 15 6 8 - - 0.0
26/07:30pm 22.6 19.2 2.1 26 9.7 ENE 9 13 5 7 - - 0.0
26/07:00pm 23.1 20.1 2.0 25 10.0 NE 7 11 4 6 - - 0.0
26/06:30pm 24.1 21.1 2.3 24 10.4 NE 7 13 4 7 - - 0.0
26/06:00pm 24.4 21.4 1.9 23 10.7 NE 7 9 4 5 - - 0.0

Latest Capital City Observations: Canberra | Sydney | Melbourne | Brisbane | Adelaide | Perth | Hobart | Darwin

Other Formats:

Comma delimited format used in spreadsheet applications
http://www.bom.gov.au/fwo/IDS60901/IDS60901.94808.axf

JavaScript Object Notation format (JSON) in row-major order
http://www.bom.gov.au/fwo/IDS60901/IDS60901.94808.json